Time;durP1;ratioP1;P1;durP2;ratioP2;P2;SDS_P1;SDS_P2;PMS_P1;PMS_P2;Temp;Humidity;BMP_temperature;BMP_pressure;BME280_temperature;BME280_humidity;BME280_pressure;Samples;Min_cycle;Max_cycle;Signal;HPM_P1;HPM_P2
2023/07/31 00:00:08;;;;;;;7.93;2.08;;;17.80;99.90;;;;;;5068705;28;20499;-46
2023/07/31 00:02:34;;;;;;;6.28;1.90;;;14.20;99.90;;;;;;5069280;28;20029;-48
2023/07/31 00:05:01;;;;;;;5.97;1.50;;;16.40;99.90;;;;;;5068791;28;20039;-47
2023/07/31 00:07:26;;;;;;;3.45;1.52;;;17.40;99.90;;;;;;5081742;28;20161;-48
2023/07/31 00:09:53;;;;;;;7.78;1.42;;;;;;;;;;5069514;28;20454;-47
2023/07/31 00:12:20;;;;;;;10.05;1.50;;;16.90;99.90;;;;;;5077881;28;20028;-53
2023/07/31 00:14:46;;;;;;;5.32;1.33;;;;;;;;;;5089109;28;20031;-53
2023/07/31 00:17:12;;;;;;;3.83;1.20;;;15.10;99.90;;;;;;5089219;28;20016;-50
2023/07/31 00:19:38;;;;;;;9.73;1.55;;;;;;;;;;5088826;28;20427;-52
2023/07/31 00:22:04;;;;;;;3.38;1.27;;;;;;;;;;5088249;28;20040;-47
2023/07/31 00:24:29;;;;;;;9.18;2.05;;;17.20;99.90;;;;;;5089043;28;20028;-52
2023/07/31 00:26:55;;;;;;;7.22;1.80;;;18.50;99.90;;;;;;5089422;28;20028;-57
2023/07/31 00:29:20;;;;;;;5.15;1.33;;;18.80;99.90;;;;;;5089141;28;20024;-49
2023/07/31 00:31:46;;;;;;;5.18;1.80;;;13.60;99.90;;;;;;5088235;28;20071;-49
2023/07/31 00:34:12;;;;;;;5.10;1.80;;;17.10;99.90;;;;;;5092164;28;20020;-51
2023/07/31 00:36:37;;;;;;;3.42;1.40;;;18.40;99.90;;;;;;5093710;28;20107;-53
2023/07/31 00:39:04;;;;;;;2.95;1.05;;;;;;;;;;5092901;28;20016;-49
2023/07/31 00:41:30;;;;;;;4.53;1.60;;;17.30;99.90;;;;;;5093889;28;20021;-54
2023/07/31 00:43:56;;;;;;;8.25;1.77;;;16.10;99.90;;;;;;5093647;28;20020;-47
2023/07/31 00:46:21;;;;;;;4.50;1.77;;;17.90;99.90;;;;;;5093352;28;20036;-51
2023/07/31 00:48:47;;;;;;;7.10;1.58;;;17.40;99.90;;;;;;5093107;28;20028;-46
2023/07/31 00:51:13;;;;;;;4.88;1.67;;;;;;;;;;5093262;28;20024;-52
2023/07/31 00:53:39;;;;;;;4.07;1.50;;;17.30;99.90;;;;;;5092924;28;20028;-52
2023/07/31 00:56:06;;;;;;;4.32;1.60;;;16.70;99.90;;;;;;5084851;28;20117;-48
2023/07/31 00:58:31;;;;;;;4.10;1.25;;;15.60;99.90;;;;;;5093016;28;20023;-48
2023/07/31 01:00:57;;;;;;;4.38;0.93;;;17.40;99.90;;;;;;5092771;28;20020;-46
2023/07/31 01:03:23;;;;;;;5.13;1.35;;;;;;;;;;5092713;28;20028;-53
2023/07/31 01:05:56;;;;;;;3.53;1.40;;;16.60;99.90;;;;;;5092863;28;20027;-56
2023/07/31 01:08:48;;;;;;;4.75;1.17;;;16.00;99.90;;;;;;5092442;28;20020;-50
2023/07/31 01:11:30;;;;;;;4.88;1.58;;;16.90;99.90;;;;;;5093522;28;20070;-50
2023/07/31 01:13:56;;;;;;;2.88;1.00;;;14.10;99.90;;;;;;5092706;28;20020;-52
2023/07/31 01:16:22;;;;;;;8.02;1.35;;;14.60;99.90;;;;;;5093015;28;20024;-53
2023/07/31 01:18:47;;;;;;;5.30;1.27;;;16.70;99.90;;;;;;5092983;28;20050;-52
2023/07/31 01:21:35;;;;;;;6.05;1.52;;;16.50;99.90;;;;;;5093508;28;20036;-50
2023/07/31 01:24:27;;;;;;;5.70;1.77;;;16.60;99.90;;;;;;5092866;28;20373;-49
2023/07/31 01:27:03;;;;;;;6.50;1.45;;;16.70;99.90;;;;;;5092966;28;20395;-48
2023/07/31 01:29:34;;;;;;;7.22;1.55;;;18.60;99.90;;;;;;5092933;28;20024;-49
2023/07/31 01:32:03;;;;;;;6.85;1.73;;;16.20;99.90;;;;;;5092253;28;20040;-47
2023/07/31 01:34:30;;;;;;;;;;;16.70;99.90;;;;;;5092727;28;20020;-52
2023/07/31 01:36:58;;;;;;;6.22;1.65;;;16.70;99.90;;;;;;5092054;28;19908;-49
2023/07/31 01:39:23;;;;;;;7.82;2.03;;;17.30;99.90;;;;;;5092417;28;20506;-52
2023/07/31 01:41:49;;;;;;;6.10;1.63;;;19.30;99.90;;;;;;5091327;28;20135;-49
2023/07/31 01:44:14;;;;;;;6.00;1.85;;;16.70;99.90;;;;;;5091742;28;20024;-52
2023/07/31 01:46:40;;;;;;;11.07;2.30;;;16.80;99.90;;;;;;5091485;28;20042;-51
2023/07/31 01:49:06;;;;;;;5.93;1.85;;;;;;;;;;5092329;28;20024;-48
2023/07/31 01:51:35;;;;;;;4.93;1.90;;;17.10;99.90;;;;;;5092386;28;20042;-53
2023/07/31 01:54:01;;;;;;;6.23;1.87;;;18.50;99.90;;;;;;5091583;28;20028;-50
2023/07/31 01:56:27;;;;;;;10.20;2.35;;;17.40;99.90;;;;;;5092343;28;20561;-53
2023/07/31 01:58:53;;;;;;;8.70;2.38;;;;;;;;;;5092147;28;20028;-46
2023/07/31 02:01:18;;;;;;;11.77;2.40;;;17.00;99.90;;;;;;5092238;28;20031;-46
2023/07/31 02:03:44;;;;;;;4.80;2.05;;;16.80;99.90;;;;;;5091690;28;20051;-46
2023/07/31 02:06:10;;;;;;;4.50;1.73;;;17.00;99.90;;;;;;5092006;28;20039;-51
2023/07/31 02:08:35;;;;;;;9.27;2.00;;;17.40;99.90;;;;;;5092037;28;20016;-53
2023/07/31 02:11:01;;;;;;;11.38;2.35;;;;;;;;;;5092234;28;20093;-51
2023/07/31 02:13:27;;;;;;;8.18;1.88;;;16.30;99.90;;;;;;5091113;28;20024;-53
2023/07/31 02:15:53;;;;;;;5.63;2.10;;;14.10;99.90;;;;;;5091565;28;20032;-54
2023/07/31 02:18:19;;;;;;;4.75;1.85;;;17.50;99.90;;;;;;5091655;28;20798;-50
2023/07/31 02:20:52;;;;;;;9.38;2.20;;;16.40;99.90;;;;;;5091923;28;20036;-56
2023/07/31 02:23:20;;;;;;;14.82;2.90;;;17.20;99.90;;;;;;5091580;28;20022;-49
2023/07/31 02:25:46;;;;;;;9.35;2.42;;;16.90;99.90;;;;;;5091848;28;20059;-51
2023/07/31 02:28:12;;;;;;;9.55;2.38;;;16.80;99.90;;;;;;5091795;28;20028;-45
2023/07/31 02:30:38;;;;;;;8.18;3.22;;;16.70;99.90;;;;;;5090553;28;20031;-47
2023/07/31 02:33:04;;;;;;;10.15;2.33;;;16.80;99.90;;;;;;5091528;28;20131;-48
2023/07/31 02:35:30;;;;;;;11.52;2.72;;;17.90;99.90;;;;;;5091600;28;20047;-51
2023/07/31 02:37:56;;;;;;;11.30;2.78;;;;;;;;;;5091225;28;20028;-50
2023/07/31 02:40:22;;;;;;;11.02;2.63;;;17.30;99.90;;;;;;5091558;28;20461;-53
2023/07/31 02:42:47;;;;;;;7.78;1.95;;;17.70;99.90;;;;;;5091208;28;20103;-50
2023/07/31 02:45:13;;;;;;;8.18;2.28;;;17.40;99.90;;;;;;5091368;28;20035;-54
2023/07/31 02:47:38;;;;;;;15.68;2.95;;;18.20;99.90;;;;;;5091237;28;20020;-55
2023/07/31 02:50:05;;;;;;;9.18;2.45;;;17.30;99.90;;;;;;5090544;28;20028;-54
2023/07/31 02:52:31;;;;;;;6.70;2.13;;;;;;;;;;5090530;28;20050;-50
2023/07/31 02:54:57;;;;;;;7.75;2.00;;;16.80;99.90;;;;;;5091130;28;20073;-51
2023/07/31 02:57:24;;;;;;;7.63;1.77;;;17.90;99.90;;;;;;5090818;28;20024;-47
2023/07/31 02:59:50;;;;;;;6.45;1.88;;;;;;;;;;5091038;28;20091;-45
2023/07/31 03:02:16;;;;;;;6.32;1.40;;;;;;;;;;5090836;28;20178;-55
2023/07/31 03:04:42;;;;;;;7.07;1.77;;;;;;;;;;5090967;28;20077;-46
2023/07/31 03:07:08;;;;;;;5.28;1.67;;;18.00;99.90;;;;;;5090618;28;20039;-50
2023/07/31 03:09:34;;;;;;;7.95;1.73;;;;;;;;;;5090682;28;20373;-51
2023/07/31 03:12:00;;;;;;;5.47;1.50;;;;;;;;;;5090638;28;20028;-50
2023/07/31 03:14:26;;;;;;;4.20;1.80;;;;;;;;;;5090566;28;20028;-47
2023/07/31 03:16:52;;;;;;;9.60;1.63;;;17.70;99.90;;;;;;5090272;28;20429;-46
2023/07/31 03:19:18;;;;;;;5.53;1.50;;;13.80;99.90;;;;;;5087172;28;20485;-47
2023/07/31 03:21:43;;;;;;;4.47;1.55;;;16.90;99.90;;;;;;5085613;28;20253;-46
2023/07/31 03:24:09;;;;;;;5.32;1.52;;;;;;;;;;5090203;28;20133;-46
2023/07/31 03:26:36;;;;;;;3.70;1.42;;;17.60;99.90;;;;;;5090803;28;20409;-55
2023/07/31 03:29:02;;;;;;;8.25;1.38;;;17.30;99.90;;;;;;5090674;28;20036;-53
2023/07/31 03:31:27;;;;;;;5.88;1.50;;;15.60;99.90;;;;;;5090223;28;20031;-54
2023/07/31 03:33:53;;;;;;;2.72;1.23;;;14.40;99.90;;;;;;5090394;28;20051;-49
2023/07/31 03:36:18;;;;;;;3.00;1.23;;;17.60;99.90;;;;;;5090229;28;20376;-50
2023/07/31 03:38:44;;;;;;;2.92;1.40;;;;;;;;;;5088459;28;20035;-49
2023/07/31 03:41:10;;;;;;;6.13;1.23;;;13.70;99.90;;;;;;5090266;28;20020;-46
2023/07/31 03:43:36;;;;;;;3.38;1.42;;;14.70;99.90;;;;;;5090157;28;20168;-49
2023/07/31 03:46:02;;;;;;;2.58;1.15;;;16.90;99.90;;;;;;5090340;28;20516;-51
2023/07/31 03:48:28;;;;;;;4.55;1.00;;;;;;;;;;5090341;28;20020;-47
2023/07/31 03:50:54;;;;;;;6.10;1.38;;;17.60;99.90;;;;;;5089678;28;20047;-51
2023/07/31 03:53:19;;;;;;;3.53;1.08;;;17.60;99.90;;;;;;5090069;28;20404;-51
2023/07/31 03:55:45;;;;;;;3.38;1.10;;;17.90;99.90;;;;;;5089838;28;20424;-50
2023/07/31 03:58:11;;;;;;;4.10;1.20;;;17.20;99.90;;;;;;5090228;28;20036;-47
2023/07/31 04:00:36;;;;;;;3.65;1.25;;;17.90;99.90;;;;;;5089907;28;20020;-47
2023/07/31 04:03:02;;;;;;;10.45;1.30;;;19.30;99.90;;;;;;5090523;28;20115;-50
2023/07/31 04:05:30;;;;;;;8.45;1.70;;;17.10;99.90;;;;;;5089861;28;20043;-48
2023/07/31 04:07:56;;;;;;;8.70;1.52;;;;;;;;;;5089676;28;20020;-46
2023/07/31 04:10:22;;;;;;;7.15;1.40;;;;;;;;;;5090191;28;20401;-57
2023/07/31 04:12:48;;;;;;;2.50;0.93;;;19.20;99.90;;;;;;5090109;28;20028;-54
2023/07/31 04:15:14;;;;;;;3.58;1.35;;;17.20;99.90;;;;;;5090008;28;20020;-50
2023/07/31 04:17:39;;;;;;;6.43;1.20;;;18.00;99.90;;;;;;5089645;28;20028;-50
2023/07/31 04:20:05;;;;;;;7.32;0.90;;;17.60;99.90;;;;;;5089660;28;20183;-53
2023/07/31 04:22:31;;;;;;;2.60;1.13;;;17.00;99.90;;;;;;5089578;28;20033;-48
2023/07/31 04:24:56;;;;;;;6.70;1.48;;;18.60;99.90;;;;;;5089670;28;20032;-48
2023/07/31 04:27:22;;;;;;;4.47;1.08;;;15.60;99.90;;;;;;5089655;28;20032;-51
2023/07/31 04:29:48;;;;;;;7.45;1.30;;;17.30;99.90;;;;;;5089685;28;20065;-47
2023/07/31 04:32:16;;;;;;;1.75;1.00;;;17.20;99.90;;;;;;5089618;28;20020;-52
2023/07/31 04:34:42;;;;;;;1.83;0.90;;;17.10;99.90;;;;;;5089777;28;20016;-56
2023/07/31 04:37:07;;;;;;;5.20;1.23;;;19.30;99.90;;;;;;5089504;28;20031;-51
2023/07/31 04:39:33;;;;;;;4.15;1.27;;;;;;;;;;5089870;28;20481;-46
2023/07/31 04:41:59;;;;;;;5.47;1.42;;;19.40;99.90;;;;;;5089728;28;20476;-47
2023/07/31 04:44:25;;;;;;;7.25;1.88;;;19.20;99.90;;;;;;5089534;28;20035;-51
2023/07/31 04:46:50;;;;;;;6.15;1.55;;;17.90;99.90;;;;;;5088721;28;20024;-46
2023/07/31 04:49:16;;;;;;;10.25;1.92;;;;;;;;;;5089650;28;20095;-50
2023/07/31 04:51:42;;;;;;;5.57;1.27;;;;;;;;;;5089267;28;20499;-47
2023/07/31 04:54:08;;;;;;;9.60;1.92;;;17.70;99.90;;;;;;5088994;28;20050;-48
2023/07/31 04:56:33;;;;;;;7.00;1.45;;;17.20;99.90;;;;;;5089623;28;20089;-52
2023/07/31 04:58:59;;;;;;;4.68;1.30;;;18.60;99.90;;;;;;5087787;28;20016;-47
2023/07/31 05:01:25;;;;;;;5.35;1.77;;;;;;;;;;5089316;28;20032;-47
2023/07/31 05:03:51;;;;;;;8.20;1.67;;;18.20;99.90;;;;;;5089040;28;20016;-49
2023/07/31 05:06:17;;;;;;;5.55;1.58;;;;;;;;;;5087982;28;20028;-50
2023/07/31 05:08:42;;;;;;;6.47;1.40;;;16.70;99.90;;;;;;5089280;28;20032;-51
2023/07/31 05:11:08;;;;;;;3.47;1.60;;;;;;;;;;5089173;28;20054;-51
2023/07/31 05:13:34;;;;;;;4.40;1.52;;;;;;;;;;5089433;28;20028;-51
2023/07/31 05:16:00;;;;;;;9.02;2.17;;;17.70;99.90;;;;;;5089325;28;20487;-46
2023/07/31 05:18:26;;;;;;;5.15;1.80;;;17.40;99.90;;;;;;5089626;28;20024;-48
2023/07/31 05:20:51;;;;;;;7.65;1.60;;;15.80;99.90;;;;;;5092931;28;20048;-55
2023/07/31 05:23:17;;;;;;;4.20;1.25;;;18.00;99.90;;;;;;5093004;28;20047;-48
2023/07/31 05:25:42;;;;;;;6.40;1.42;;;16.90;99.90;;;;;;5092598;28;20502;-52
2023/07/31 05:28:08;;;;;;;4.68;1.40;;;;;;;;;;5092783;28;20102;-47
2023/07/31 05:30:34;;;;;;;6.88;1.48;;;17.40;99.90;;;;;;5092432;28;20381;-50
2023/07/31 05:33:00;;;;;;;6.03;1.45;;;;;;;;;;5092853;28;20044;-47
2023/07/31 05:35:26;;;;;;;9.85;1.65;;;18.20;99.90;;;;;;5092926;28;20536;-57
2023/07/31 05:37:51;;;;;;;6.72;1.25;;;18.10;99.90;;;;;;5092734;28;20078;-50
2023/07/31 05:40:17;;;;;;;4.13;1.13;;;19.50;99.90;;;;;;5092168;28;20107;-52
2023/07/31 05:42:42;;;;;;;5.38;1.63;;;18.00;99.90;;;;;;5092797;28;20462;-51
2023/07/31 05:45:08;;;;;;;3.78;1.20;;;17.80;99.90;;;;;;5092726;28;20092;-49
2023/07/31 05:47:34;;;;;;;3.05;1.30;;;17.40;99.90;;;;;;5092487;28;20103;-51
2023/07/31 05:50:00;;;;;;;3.60;1.13;;;17.90;99.90;;;;;;5092360;28;20028;-49
2023/07/31 05:52:25;;;;;;;2.85;0.90;;;17.80;99.90;;;;;;5092297;28;20115;-55
2023/07/31 05:54:51;;;;;;;5.10;1.40;;;17.70;99.90;;;;;;5080446;28;20029;-53
2023/07/31 05:57:17;;;;;;;5.80;1.00;;;19.70;99.90;;;;;;5071478;28;20078;-50
2023/07/31 05:59:43;;;;;;;3.35;1.15;;;;;;;;;;5071539;28;20040;-50
2023/07/31 06:02:08;;;;;;;4.35;0.90;;;18.40;99.90;;;;;;5072232;28;20028;-53
2023/07/31 06:04:34;;;;;;;4.70;1.23;;;17.70;99.90;;;;;;5071636;28;20024;-52
2023/07/31 06:07:00;;;;;;;3.40;0.93;;;17.60;99.90;;;;;;5071977;28;20400;-46
2023/07/31 06:09:26;;;;;;;2.15;1.10;;;18.10;99.90;;;;;;5072091;28;20020;-54
2023/07/31 06:11:51;;;;;;;4.10;1.02;;;18.00;99.90;;;;;;5071980;28;20108;-48
2023/07/31 06:14:17;;;;;;;2.50;1.10;;;18.70;99.90;;;;;;5071270;28;20513;-49
2023/07/31 06:16:44;;;;;;;2.75;1.00;;;17.60;99.90;;;;;;5071234;28;20020;-47
2023/07/31 06:19:10;;;;;;;4.68;1.00;;;18.20;99.90;;;;;;5071506;28;20016;-52
2023/07/31 06:21:37;;;;;;;6.32;1.00;;;;;;;;;;5071447;28;20431;-48
2023/07/31 06:24:04;;;;;;;3.20;0.90;;;17.60;99.90;;;;;;5070999;28;20108;-51
2023/07/31 06:26:29;;;;;;;5.43;1.45;;;18.10;99.90;;;;;;5070979;28;20119;-49
2023/07/31 06:28:55;;;;;;;2.92;0.90;;;18.00;99.90;;;;;;5081002;28;20099;-52
2023/07/31 06:31:22;;;;;;;2.03;0.50;;;18.50;99.90;;;;;;5091558;28;20038;-54
2023/07/31 06:33:49;;;;;;;12.02;1.05;;;17.80;99.90;;;;;;5090796;28;20489;-51
2023/07/31 06:36:15;;;;;;;4.65;0.95;;;;;;;;;;5091746;28;20093;-49
2023/07/31 06:38:41;;;;;;;2.28;0.80;;;17.90;99.90;;;;;;5077175;28;20016;-49
2023/07/31 06:41:06;;;;;;;2.28;0.93;;;18.30;99.90;;;;;;5091520;28;20107;-47
2023/07/31 06:43:32;;;;;;;0.73;0.55;;;18.30;99.90;;;;;;5091218;28;20548;-50
2023/07/31 06:45:57;;;;;;;4.63;1.10;;;20.70;99.90;;;;;;5091488;28;20040;-52
2023/07/31 06:48:23;;;;;;;1.77;0.73;;;17.00;99.90;;;;;;5091212;28;20389;-52
2023/07/31 06:50:49;;;;;;;2.83;0.80;;;15.40;99.90;;;;;;5091356;28;20024;-52
2023/07/31 06:53:14;;;;;;;2.70;0.73;;;18.50;99.90;;;;;;5089754;28;20020;-48
2023/07/31 06:55:40;;;;;;;2.08;0.80;;;18.50;99.90;;;;;;5091071;28;20387;-47
2023/07/31 06:58:06;;;;;;;0.85;0.82;;;18.50;99.90;;;;;;5091429;28;20473;-50
2023/07/31 07:00:32;;;;;;;3.40;0.93;;;15.20;99.90;;;;;;5091273;28;20035;-54
2023/07/31 07:02:57;;;;;;;1.95;0.77;;;19.20;99.90;;;;;;5090781;28;20344;-55
2023/07/31 07:05:23;;;;;;;4.45;1.02;;;18.10;99.90;;;;;;5090644;28;20028;-52
2023/07/31 07:07:51;;;;;;;4.32;0.95;;;15.80;99.90;;;;;;5091187;28;20420;-51
2023/07/31 07:10:17;;;;;;;2.70;0.80;;;18.70;99.90;;;;;;5088843;28;20038;-56
2023/07/31 07:12:42;;;;;;;3.42;0.80;;;18.60;99.90;;;;;;5083088;28;20024;-52
2023/07/31 07:15:08;;;;;;;3.83;0.93;;;18.70;99.90;;;;;;5070799;28;20028;-50
2023/07/31 07:17:34;;;;;;;2.97;0.88;;;;;;;;;;5070803;28;20107;-53
2023/07/31 07:20:01;;;;;;;1.95;0.70;;;18.30;99.90;;;;;;5069461;28;20568;-52
2023/07/31 07:22:27;;;;;;;0.98;0.60;;;18.50;99.90;;;;;;5069689;28;20089;-46
2023/07/31 07:24:53;;;;;;;0.98;0.50;;;20.00;99.90;;;;;;5069088;28;20024;-51
2023/07/31 07:27:19;;;;;;;1.80;0.52;;;18.40;99.90;;;;;;5070263;28;20064;-50
2023/07/31 07:29:46;;;;;;;0.85;0.45;;;19.00;99.90;;;;;;5086773;28;20452;-55
2023/07/31 07:32:12;;;;;;;1.33;0.47;;;18.50;99.90;;;;;;5076302;28;20055;-50
2023/07/31 07:34:37;;;;;;;2.67;0.90;;;20.40;99.90;;;;;;5069907;28;20052;-47
2023/07/31 07:37:03;;;;;;;1.33;0.50;;;18.60;99.90;;;;;;5070201;28;20028;-48
2023/07/31 07:39:30;;;;;;;3.55;1.20;;;19.90;99.90;;;;;;5070020;28;20044;-51
2023/07/31 07:41:56;;;;;;;2.53;0.82;;;18.10;99.90;;;;;;5069376;28;20086;-51
2023/07/31 07:44:22;;;;;;;4.30;1.35;;;;;;;;;;5070006;28;20066;-49
2023/07/31 07:46:47;;;;;;;5.75;1.27;;;15.70;99.90;;;;;;5069671;28;20040;-54
2023/07/31 07:49:13;;;;;;;2.00;0.95;;;;;;;;;;5069907;28;20019;-47
2023/07/31 07:51:39;;;;;;;6.05;1.20;;;20.20;99.90;;;;;;5069750;28;20064;-50
2023/07/31 07:54:05;;;;;;;6.18;1.73;;;;;;;;;;5068950;28;20047;-50
2023/07/31 07:56:32;;;;;;;9.10;1.40;;;18.00;99.90;;;;;;5069565;28;20412;-51
2023/07/31 07:58:58;;;;;;;5.85;2.00;;;20.30;99.90;;;;;;5069634;28;20585;-50
2023/07/31 08:01:24;;;;;;;5.97;1.55;;;19.80;99.90;;;;;;5069645;28;20032;-47
2023/07/31 08:03:50;;;;;;;6.45;1.35;;;18.30;99.90;;;;;;5069943;28;20035;-50
2023/07/31 08:06:16;;;;;;;5.20;1.65;;;;;;;;;;5069294;28;20085;-46
2023/07/31 08:08:41;;;;;;;4.07;1.40;;;17.60;99.90;;;;;;5069529;28;20678;-46
2023/07/31 08:11:07;;;;;;;6.50;1.55;;;18.10;99.90;;;;;;5068660;28;20085;-52
2023/07/31 08:13:33;;;;;;;4.82;1.17;;;17.80;99.90;;;;;;5069750;28;20114;-51
2023/07/31 08:15:59;;;;;;;4.18;1.23;;;;;;;;;;5069186;28;20169;-49
2023/07/31 08:18:24;;;;;;;4.53;1.20;;;20.30;99.90;;;;;;5069267;28;20025;-56
2023/07/31 08:20:50;;;;;;;8.38;1.40;;;17.80;99.90;;;;;;5069379;28;20366;-47
2023/07/31 08:23:15;;;;;;;2.67;1.08;;;19.80;99.90;;;;;;5069003;28;20021;-48
2023/07/31 08:25:41;;;;;;;5.28;1.25;;;20.30;99.90;;;;;;5069336;28;20464;-50
2023/07/31 08:28:07;;;;;;;4.60;0.90;;;;;;;;;;5072519;28;20043;-53
2023/07/31 08:30:33;;;;;;;4.90;0.88;;;;;;;;;;5089936;28;20016;-49
2023/07/31 08:33:00;;;;;;;3.13;0.90;;;18.20;99.90;;;;;;5089659;28;20077;-48
2023/07/31 08:35:28;;;;;;;4.10;0.73;;;18.90;99.90;;;;;;5089254;28;20031;-53
2023/07/31 08:37:54;;;;;;;5.68;1.05;;;18.90;99.90;;;;;;5089136;28;20534;-50
2023/07/31 08:40:21;;;;;;;3.55;0.80;;;18.50;99.90;;;;;;5088885;28;20495;-47
2023/07/31 08:42:48;;;;;;;3.15;0.80;;;18.70;99.90;;;;;;5081050;28;20024;-51
2023/07/31 08:45:15;;;;;;;3.15;0.82;;;18.20;99.90;;;;;;5065126;28;20036;-46
2023/07/31 08:47:44;;;;;;;4.13;0.90;;;18.20;99.90;;;;;;5065968;28;20034;-49
2023/07/31 08:50:12;;;;;;;4.50;0.95;;;17.80;99.90;;;;;;5068102;28;20021;-47
2023/07/31 08:52:38;;;;;;;6.32;0.98;;;15.50;99.90;;;;;;5069556;28;20032;-47
2023/07/31 08:55:05;;;;;;;5.35;1.13;;;20.30;99.90;;;;;;5072171;28;20017;-48
2023/07/31 08:57:33;;;;;;;4.50;1.58;;;17.30;99.90;;;;;;5073527;28;20092;-48
2023/07/31 08:59:59;;;;;;;2.17;0.43;;;20.00;99.90;;;;;;5073454;28;20520;-52
2023/07/31 09:02:30;;;;;;;7.35;1.33;;;18.10;99.90;;;;;;5071727;28;20047;-47
2023/07/31 09:04:55;;;;;;;3.95;1.23;;;16.50;99.90;;;;;;5070656;28;20071;-49
2023/07/31 09:07:21;;;;;;;4.20;0.90;;;14.90;99.90;;;;;;5067684;28;20064;-47
2023/07/31 09:09:47;;;;;;;1.48;0.70;;;18.80;99.90;;;;;;5067360;28;20534;-46
2023/07/31 09:12:12;;;;;;;3.70;1.05;;;18.80;99.90;;;;;;5071318;28;20472;-55
2023/07/31 09:14:40;;;;;;;3.15;0.90;;;20.00;99.90;;;;;;5073232;28;20024;-48
2023/07/31 09:17:05;;;;;;;4.50;1.20;;;19.10;99.90;;;;;;5073110;28;20031;-47
2023/07/31 09:19:39;;;;;;;7.47;1.05;;;18.20;99.90;;;;;;5060173;28;20025;-47
2023/07/31 09:22:05;;;;;;;3.72;0.80;;;14.90;99.90;;;;;;5073008;28;20479;-46
2023/07/31 09:24:33;;;;;;;1.55;0.70;;;18.20;99.90;;;;;;5072995;28;20051;-46
2023/07/31 09:27:00;;;;;;;6.03;0.85;;;19.90;99.90;;;;;;5073081;28;20033;-48
2023/07/31 09:29:28;;;;;;;6.32;0.85;;;18.20;99.90;;;;;;5086612;28;20034;-46
2023/07/31 09:31:54;;;;;;;1.10;0.77;;;18.20;99.90;;;;;;5093054;28;20028;-46
2023/07/31 09:34:27;;;;;;;1.52;0.60;;;18.20;99.90;;;;;;5093291;28;20043;-47
2023/07/31 09:36:53;;;;;;;0.52;0.40;;;19.20;99.90;;;;;;5093145;28;20035;-51
2023/07/31 09:39:20;;;;;;;1.60;0.60;;;18.70;99.90;;;;;;5093114;28;20020;-47
2023/07/31 09:41:55;;;;;;;1.17;0.60;;;19.20;99.90;;;;;;5090097;28;20040;-55
2023/07/31 09:44:21;;;;;;;2.78;0.65;;;19.00;99.90;;;;;;5072350;28;20120;-54
2023/07/31 09:46:47;;;;;;;2.78;0.50;;;18.70;99.90;;;;;;5072317;28;20115;-55
2023/07/31 09:49:14;;;;;;;1.75;0.43;;;18.40;99.90;;;;;;5072430;28;20091;-55
2023/07/31 09:51:42;;;;;;;0.93;0.50;;;18.50;99.90;;;;;;5072215;28;20029;-46
2023/07/31 09:54:15;;;;;;;3.70;0.88;;;18.40;99.90;;;;;;5059609;28;20031;-49
2023/07/31 09:56:46;;;;;;;2.47;0.82;;;18.60;99.90;;;;;;5072435;28;20031;-50
2023/07/31 09:59:16;;;;;;;3.55;0.65;;;20.30;99.90;;;;;;5071615;28;20013;-48
2023/07/31 10:01:43;;;;;;;1.33;0.50;;;18.20;99.90;;;;;;5070463;28;20059;-46
2023/07/31 10:04:10;;;;;;;3.97;1.00;;;18.20;99.90;;;;;;5070136;28;20047;-49
2023/07/31 10:06:37;;;;;;;7.68;0.98;;;20.40;99.90;;;;;;5069710;28;20749;-51
2023/07/31 10:09:08;;;;;;;2.55;0.90;;;18.30;99.90;;;;;;5069929;28;20081;-50
2023/07/31 10:11:50;;;;;;;2.40;0.60;;;18.20;99.90;;;;;;5070032;28;20052;-50
2023/07/31 10:14:20;;;;;;;6.82;0.90;;;18.30;99.90;;;;;;5069824;28;20457;-49
2023/07/31 10:16:45;;;;;;;1.42;0.50;;;18.70;99.90;;;;;;5071630;28;20481;-47
2023/07/31 10:19:11;;;;;;;1.67;0.60;;;18.70;99.90;;;;;;5071931;28;20033;-52
2023/07/31 10:21:37;;;;;;;1.15;0.40;;;18.20;99.90;;;;;;5071640;28;20101;-47
2023/07/31 10:24:06;;;;;;;4.63;0.70;;;18.60;99.90;;;;;;5064378;28;20025;-51
2023/07/31 10:26:35;;;;;;;6.43;0.68;;;17.60;99.90;;;;;;5069428;28;20119;-50
2023/07/31 10:29:01;;;;;;;1.70;0.30;;;16.70;99.90;;;;;;5081995;28;20024;-51
2023/07/31 10:31:28;;;;;;;1.05;0.38;;;17.50;99.90;;;;;;5091952;28;20047;-46
2023/07/31 10:33:55;;;;;;;1.77;0.40;;;19.00;99.90;;;;;;5091752;28;20063;-49
2023/07/31 10:36:21;;;;;;;2.47;0.30;;;18.90;99.90;;;;;;5091632;28;20491;-52
2023/07/31 10:38:50;;;;;;;3.30;0.60;;;19.60;99.90;;;;;;5091901;28;20020;-50
2023/07/31 10:41:16;;;;;;;0.57;0.30;;;20.70;99.90;;;;;;5091830;28;20484;-53
2023/07/31 10:43:42;;;;;;;2.42;0.32;;;18.90;99.90;;;;;;5087547;28;20103;-49
2023/07/31 10:46:11;;;;;;;0.38;0.38;;;19.10;99.90;;;;;;5071357;28;20041;-51
2023/07/31 10:48:38;;;;;;;3.42;0.60;;;20.50;99.90;;;;;;5071251;28;20021;-48
2023/07/31 10:51:09;;;;;;;0.80;0.40;;;20.50;99.90;;;;;;5070948;28;20024;-46
2023/07/31 10:53:34;;;;;;;2.20;0.40;;;19.60;99.90;;;;;;5069054;28;20036;-55
2023/07/31 10:56:05;;;;;;;0.43;0.30;;;19.20;99.90;;;;;;5071413;28;20029;-48
2023/07/31 10:58:32;;;;;;;0.32;0.32;;;19.80;99.90;;;;;;5070665;28;20135;-48
2023/07/31 11:00:59;;;;;;;1.17;0.40;;;19.00;99.90;;;;;;5071245;28;20032;-50
2023/07/31 11:03:27;;;;;;;0.40;0.40;;;20.70;99.90;;;;;;5070991;28;20055;-50
2023/07/31 11:06:03;;;;;;;2.15;0.30;;;21.00;99.90;;;;;;5071019;28;20041;-52
2023/07/31 11:08:33;;;;;;;5.78;0.40;;;19.00;99.90;;;;;;5070884;28;20030;-52
2023/07/31 11:11:01;;;;;;;0.68;0.30;;;19.30;99.90;;;;;;5070490;28;20429;-47
2023/07/31 11:13:39;;;;;;;0.23;0.20;;;19.70;99.90;;;;;;5068931;28;20021;-54
2023/07/31 11:16:04;;;;;;;0.63;0.30;;;19.30;99.90;;;;;;5070165;28;20280;-46
2023/07/31 11:18:30;;;;;;;0.28;0.28;;;19.70;99.90;;;;;;5070603;28;20016;-50
2023/07/31 11:20:56;;;;;;;0.30;0.22;;;19.50;99.90;;;;;;5070611;28;20039;-50
2023/07/31 11:23:23;;;;;;;0.50;0.25;;;19.90;99.90;;;;;;5070677;28;20025;-49
2023/07/31 11:25:49;;;;;;;1.27;0.32;;;19.40;99.90;;;;;;5070427;28;20032;-56
2023/07/31 11:28:16;;;;;;;0.73;0.30;;;19.40;99.90;;;;;;5074670;28;20091;-50
2023/07/31 11:30:43;;;;;;;5.47;0.40;;;18.90;99.90;;;;;;5090744;28;20032;-48
2023/07/31 11:33:10;;;;;;;0.68;0.40;;;19.80;99.90;;;;;;5090815;28;20150;-49
2023/07/31 11:35:44;;;;;;;0.30;0.30;;;19.90;99.90;;;;;;5084271;28;20031;-52
2023/07/31 11:38:23;;;;;;;0.43;0.30;;;20.00;99.90;;;;;;5067776;28;20024;-52
2023/07/31 11:40:49;;;;;;;0.35;0.30;;;19.90;99.90;;;;;;5070455;28;20831;-54
2023/07/31 11:43:17;;;;;;;0.20;0.20;;;20.00;99.90;;;;;;5070814;28;20032;-48
2023/07/31 11:45:47;;;;;;;0.90;0.40;;;20.40;99.90;;;;;;5070731;28;20036;-51
2023/07/31 11:48:27;;;;;;;0.38;0.20;;;20.30;99.90;;;;;;5070529;28;20043;-53
2023/07/31 11:50:54;;;;;;;0.95;0.60;;;19.40;99.90;;;;;;5070256;28;20523;-50
2023/07/31 11:54:01;;;;;;;0.20;0.20;;;20.30;99.90;;;;;;5070253;28;20123;-51
2023/07/31 11:56:27;;;;;;;3.95;0.50;;;20.40;99.90;;;;;;5065426;28;20404;-54
2023/07/31 11:58:58;;;;;;;0.30;0.30;;;18.40;99.90;;;;;;5070089;28;20588;-53
2023/07/31 12:01:27;;;;;;;0.47;0.30;;;19.50;99.90;;;;;;5069789;28;20374;-50
2023/07/31 12:03:54;;;;;;;0.75;0.43;;;19.90;99.90;;;;;;5070053;28;20035;-56
2023/07/31 12:06:20;;;;;;;1.75;0.43;;;19.80;99.90;;;;;;5069981;28;20043;-48
2023/07/31 12:08:47;;;;;;;0.85;0.60;;;19.20;99.90;;;;;;5068929;28;20033;-46
2023/07/31 12:11:17;;;;;;;0.65;0.32;;;19.50;99.90;;;;;;5070122;28;20031;-54
2023/07/31 12:13:43;;;;;;;0.75;0.40;;;19.70;99.90;;;;;;5064433;28;20059;-49
2023/07/31 12:16:08;;;;;;;0.77;0.40;;;16.60;99.90;;;;;;5102457;28;20493;-49
2023/07/31 12:18:38;;;;;;;0.88;0.30;;;18.10;99.90;;;;;;5069369;28;20106;-52
2023/07/31 12:21:06;;;;;;;4.32;0.60;;;18.50;99.90;;;;;;5072156;28;20029;-52
2023/07/31 12:23:33;;;;;;;0.90;0.43;;;19.00;99.90;;;;;;5067456;28;20469;-53
2023/07/31 12:26:13;;;;;;;1.67;0.47;;;19.60;99.90;;;;;;5069039;28;20115;-56
2023/07/31 12:28:54;;;;;;;2.50;0.57;;;19.20;99.90;;;;;;5068545;28;20111;-53
2023/07/31 12:31:22;;;;;;;1.10;0.50;;;19.20;99.90;;;;;;5075319;28;20020;-45
2023/07/31 12:33:50;;;;;;;2.35;0.57;;;19.20;99.90;;;;;;5069158;28;20386;-53
2023/07/31 12:36:18;;;;;;;1.60;0.60;;;19.10;99.90;;;;;;5080236;28;20459;-53
2023/07/31 12:38:44;;;;;;;3.15;0.57;;;19.00;99.90;;;;;;5077804;28;20106;-50
2023/07/31 12:41:10;;;;;;;0.98;0.60;;;19.00;99.90;;;;;;5076321;28;20013;-53
2023/07/31 12:43:37;;;;;;;0.30;0.30;;;19.00;99.90;;;;;;5076454;28;20200;-52
2023/07/31 12:46:03;;;;;;;0.68;0.40;;;18.90;99.90;;;;;;5076581;28;20067;-47
2023/07/31 12:48:29;;;;;;;3.22;0.40;;;18.90;99.90;;;;;;5076363;28;20079;-52
2023/07/31 12:50:54;;;;;;;1.65;0.57;;;18.80;99.90;;;;;;5076175;28;20040;-51
2023/07/31 12:53:20;;;;;;;0.70;0.50;;;18.80;99.90;;;;;;5076479;28;20021;-47
2023/07/31 12:55:46;;;;;;;4.93;0.73;;;18.80;99.90;;;;;;5075089;28;20557;-56
2023/07/31 12:58:12;;;;;;;1.65;0.50;;;18.90;99.90;;;;;;5073981;28;20020;-47